sensor_id;sensor_type;location;lat;lon;timestamp;P1;durP1;ratioP1;P2;durP2;ratioP2
17052;SDS011;8643;48.824;11.422;2023-03-24T00:01:25;5.10;;;3.80;;
17052;SDS011;8643;48.824;11.422;2023-03-24T00:03:54;7.68;;;3.70;;
17052;SDS011;8643;48.824;11.422;2023-03-24T00:06:24;4.78;;;3.53;;
17052;SDS011;8643;48.824;11.422;2023-03-24T00:08:53;5.78;;;3.85;;
17052;SDS011;8643;48.824;11.422;2023-03-24T00:11:22;6.07;;;3.72;;
17052;SDS011;8643;48.824;11.422;2023-03-24T00:13:51;6.32;;;3.85;;
17052;SDS011;8643;48.824;11.422;2023-03-24T00:16:25;5.93;;;3.88;;
17052;SDS011;8643;48.824;11.422;2023-03-24T00:18:54;5.10;;;3.67;;
17052;SDS011;8643;48.824;11.422;2023-03-24T00:21:23;7.07;;;3.50;;
17052;SDS011;8643;48.824;11.422;2023-03-24T00:23:53;5.43;;;3.53;;
17052;SDS011;8643;48.824;11.422;2023-03-24T00:26:23;6.45;;;3.63;;
17052;SDS011;8643;48.824;11.422;2023-03-24T00:28:53;5.53;;;3.65;;
17052;SDS011;8643;48.824;11.422;2023-03-24T00:31:25;5.15;;;3.40;;
17052;SDS011;8643;48.824;11.422;2023-03-24T00:33:53;6.15;;;3.30;;
17052;SDS011;8643;48.824;11.422;2023-03-24T00:36:22;5.35;;;3.30;;
17052;SDS011;8643;48.824;11.422;2023-03-24T00:38:55;5.47;;;3.35;;
17052;SDS011;8643;48.824;11.422;2023-03-24T00:41:24;7.22;;;3.97;;
17052;SDS011;8643;48.824;11.422;2023-03-24T00:43:55;9.43;;;4.07;;
17052;SDS011;8643;48.824;11.422;2023-03-24T00:46:30;8.45;;;4.70;;
17052;SDS011;8643;48.824;11.422;2023-03-24T00:49:00;8.20;;;4.22;;
17052;SDS011;8643;48.824;11.422;2023-03-24T00:51:32;6.07;;;4.40;;
17052;SDS011;8643;48.824;11.422;2023-03-24T00:54:04;4.55;;;3.50;;
17052;SDS011;8643;48.824;11.422;2023-03-24T00:56:35;7.68;;;4.13;;
17052;SDS011;8643;48.824;11.422;2023-03-24T00:59:07;5.32;;;4.03;;
17052;SDS011;8643;48.824;11.422;2023-03-24T01:01:38;5.85;;;4.07;;
17052;SDS011;8643;48.824;11.422;2023-03-24T01:04:09;6.32;;;3.80;;
17052;SDS011;8643;48.824;11.422;2023-03-24T01:06:37;7.70;;;4.30;;
17052;SDS011;8643;48.824;11.422;2023-03-24T01:09:06;7.38;;;3.80;;
17052;SDS011;8643;48.824;11.422;2023-03-24T01:11:37;6.82;;;4.55;;
17052;SDS011;8643;48.824;11.422;2023-03-24T01:14:08;5.22;;;4.13;;
17052;SDS011;8643;48.824;11.422;2023-03-24T01:16:39;5.72;;;4.28;;
17052;SDS011;8643;48.824;11.422;2023-03-24T01:19:10;7.60;;;4.20;;
17052;SDS011;8643;48.824;11.422;2023-03-24T01:21:39;6.63;;;4.30;;
17052;SDS011;8643;48.824;11.422;2023-03-24T01:24:09;8.38;;;4.50;;
17052;SDS011;8643;48.824;11.422;2023-03-24T01:26:39;6.45;;;4.53;;
17052;SDS011;8643;48.824;11.422;2023-03-24T01:29:08;7.10;;;4.60;;
17052;SDS011;8643;48.824;11.422;2023-03-24T01:31:37;5.75;;;4.38;;
17052;SDS011;8643;48.824;11.422;2023-03-24T01:34:07;7.07;;;5.00;;
17052;SDS011;8643;48.824;11.422;2023-03-24T01:36:36;6.80;;;4.70;;
17052;SDS011;8643;48.824;11.422;2023-03-24T01:39:04;7.35;;;4.43;;
17052;SDS011;8643;48.824;11.422;2023-03-24T01:41:34;7.85;;;4.53;;
17052;SDS011;8643;48.824;11.422;2023-03-24T01:44:24;6.82;;;4.72;;
17052;SDS011;8643;48.824;11.422;2023-03-24T01:46:57;5.85;;;4.40;;
17052;SDS011;8643;48.824;11.422;2023-03-24T01:49:30;7.00;;;4.30;;
17052;SDS011;8643;48.824;11.422;2023-03-24T01:52:04;8.05;;;5.03;;
17052;SDS011;8643;48.824;11.422;2023-03-24T01:54:38;6.72;;;4.70;;
17052;SDS011;8643;48.824;11.422;2023-03-24T01:57:13;7.00;;;4.63;;
17052;SDS011;8643;48.824;11.422;2023-03-24T01:59:49;6.60;;;4.77;;
17052;SDS011;8643;48.824;11.422;2023-03-24T02:03:02;8.43;;;5.07;;
17052;SDS011;8643;48.824;11.422;2023-03-24T02:05:45;8.80;;;5.00;;
17052;SDS011;8643;48.824;11.422;2023-03-24T02:08:19;7.95;;;5.03;;
17052;SDS011;8643;48.824;11.422;2023-03-24T02:10:55;11.95;;;5.47;;
17052;SDS011;8643;48.824;11.422;2023-03-24T02:13:33;7.37;;;4.77;;
17052;SDS011;8643;48.824;11.422;2023-03-24T02:16:11;8.52;;;5.47;;
17052;SDS011;8643;48.824;11.422;2023-03-24T02:18:53;8.90;;;5.00;;
17052;SDS011;8643;48.824;11.422;2023-03-24T02:25:34;8.10;;;5.03;;
17052;SDS011;8643;48.824;11.422;2023-03-24T02:28:27;7.27;;;5.00;;
17052;SDS011;8643;48.824;11.422;2023-03-24T02:31:11;7.10;;;5.13;;
17052;SDS011;8643;48.824;11.422;2023-03-24T02:34:13;7.73;;;4.97;;
17052;SDS011;8643;48.824;11.422;2023-03-24T02:37:20;10.00;;;5.43;;
17052;SDS011;8643;48.824;11.422;2023-03-24T02:40:23;9.67;;;5.77;;
17052;SDS011;8643;48.824;11.422;2023-03-24T02:43:05;8.37;;;5.63;;
17052;SDS011;8643;48.824;11.422;2023-03-24T02:45:59;11.93;;;6.37;;
17052;SDS011;8643;48.824;11.422;2023-03-24T02:48:43;8.43;;;5.97;;
17052;SDS011;8643;48.824;11.422;2023-03-24T02:51:31;7.57;;;5.40;;
17052;SDS011;8643;48.824;11.422;2023-03-24T02:54:10;9.63;;;5.60;;
17052;SDS011;8643;48.824;11.422;2023-03-24T02:56:45;9.53;;;5.90;;
17052;SDS011;8643;48.824;11.422;2023-03-24T02:59:48;10.63;;;6.80;;
17052;SDS011;8643;48.824;11.422;2023-03-24T03:02:45;9.50;;;6.80;;
17052;SDS011;8643;48.824;11.422;2023-03-24T03:05:21;10.67;;;6.47;;
17052;SDS011;8643;48.824;11.422;2023-03-24T03:07:57;9.43;;;6.10;;
17052;SDS011;8643;48.824;11.422;2023-03-24T03:10:33;9.23;;;6.50;;
17052;SDS011;8643;48.824;11.422;2023-03-24T03:13:08;9.20;;;6.23;;
17052;SDS011;8643;48.824;11.422;2023-03-24T03:15:43;13.07;;;6.57;;
17052;SDS011;8643;48.824;11.422;2023-03-24T03:18:19;9.87;;;6.93;;
17052;SDS011;8643;48.824;11.422;2023-03-24T03:20:55;10.03;;;6.40;;
17052;SDS011;8643;48.824;11.422;2023-03-24T03:23:33;9.90;;;6.30;;
17052;SDS011;8643;48.824;11.422;2023-03-24T03:26:07;9.00;;;6.27;;
17052;SDS011;8643;48.824;11.422;2023-03-24T03:28:43;12.97;;;6.60;;
17052;SDS011;8643;48.824;11.422;2023-03-24T03:31:24;9.67;;;6.07;;
17052;SDS011;8643;48.824;11.422;2023-03-24T03:33:58;10.03;;;6.67;;
17052;SDS011;8643;48.824;11.422;2023-03-24T03:36:40;11.70;;;7.40;;
17052;SDS011;8643;48.824;11.422;2023-03-24T03:39:17;11.07;;;6.97;;
17052;SDS011;8643;48.824;11.422;2023-03-24T03:41:56;11.43;;;7.07;;
17052;SDS011;8643;48.824;11.422;2023-03-24T03:44:27;12.63;;;6.70;;
17052;SDS011;8643;48.824;11.422;2023-03-24T03:46:56;9.83;;;6.20;;
17052;SDS011;8643;48.824;11.422;2023-03-24T03:49:35;13.43;;;6.60;;
17052;SDS011;8643;48.824;11.422;2023-03-24T03:52:04;9.83;;;6.33;;
17052;SDS011;8643;48.824;11.422;2023-03-24T03:54:34;9.27;;;6.33;;
17052;SDS011;8643;48.824;11.422;2023-03-24T03:57:06;8.83;;;6.03;;
17052;SDS011;8643;48.824;11.422;2023-03-24T03:59:59;7.37;;;5.17;;
17052;SDS011;8643;48.824;11.422;2023-03-24T04:02:49;8.47;;;5.47;;
17052;SDS011;8643;48.824;11.422;2023-03-24T04:05:43;8.70;;;5.53;;
17052;SDS011;8643;48.824;11.422;2023-03-24T04:08:28;8.30;;;5.77;;
17052;SDS011;8643;48.824;11.422;2023-03-24T04:11:41;8.90;;;5.77;;
17052;SDS011;8643;48.824;11.422;2023-03-24T04:14:44;9.87;;;6.10;;
17052;SDS011;8643;48.824;11.422;2023-03-24T04:18:05;8.13;;;5.53;;
17052;SDS011;8643;48.824;11.422;2023-03-24T04:21:04;9.13;;;5.22;;
17052;SDS011;8643;48.824;11.422;2023-03-24T04:23:56;7.03;;;5.10;;
17052;SDS011;8643;48.824;11.422;2023-03-24T04:26:56;9.37;;;5.50;;
17052;SDS011;8643;48.824;11.422;2023-03-24T04:29:37;8.63;;;5.32;;
17052;SDS011;8643;48.824;11.422;2023-03-24T04:32:20;10.52;;;5.57;;
17052;SDS011;8643;48.824;11.422;2023-03-24T04:35:01;11.02;;;5.80;;
17052;SDS011;8643;48.824;11.422;2023-03-24T04:37:57;8.70;;;5.57;;
17052;SDS011;8643;48.824;11.422;2023-03-24T04:40:32;7.90;;;5.53;;
17052;SDS011;8643;48.824;11.422;2023-03-24T04:43:09;8.93;;;5.55;;
17052;SDS011;8643;48.824;11.422;2023-03-24T04:45:44;11.75;;;6.00;;
17052;SDS011;8643;48.824;11.422;2023-03-24T04:48:38;8.63;;;5.73;;
17052;SDS011;8643;48.824;11.422;2023-03-24T04:51:14;8.50;;;5.75;;
17052;SDS011;8643;48.824;11.422;2023-03-24T04:54:13;11.53;;;6.67;;
17052;SDS011;8643;48.824;11.422;2023-03-24T04:56:49;7.67;;;5.73;;
17052;SDS011;8643;48.824;11.422;2023-03-24T04:59:22;8.13;;;5.70;;
17052;SDS011;8643;48.824;11.422;2023-03-24T05:01:51;9.83;;;5.73;;
17052;SDS011;8643;48.824;11.422;2023-03-24T05:04:32;9.30;;;6.03;;
17052;SDS011;8643;48.824;11.422;2023-03-24T05:07:30;7.75;;;5.78;;
17052;SDS011;8643;48.824;11.422;2023-03-24T05:10:03;10.70;;;5.43;;
17052;SDS011;8643;48.824;11.422;2023-03-24T05:12:39;8.77;;;6.05;;
17052;SDS011;8643;48.824;11.422;2023-03-24T05:15:10;7.30;;;5.57;;
17052;SDS011;8643;48.824;11.422;2023-03-24T05:17:40;7.57;;;5.60;;
17052;SDS011;8643;48.824;11.422;2023-03-24T05:20:09;9.00;;;5.30;;
17052;SDS011;8643;48.824;11.422;2023-03-24T05:22:42;7.95;;;5.45;;
17052;SDS011;8643;48.824;11.422;2023-03-24T05:25:12;7.57;;;5.60;;
17052;SDS011;8643;48.824;11.422;2023-03-24T05:27:41;6.78;;;5.10;;
17052;SDS011;8643;48.824;11.422;2023-03-24T05:30:22;8.50;;;5.03;;
17052;SDS011;8643;48.824;11.422;2023-03-24T05:32:58;7.47;;;5.28;;
17052;SDS011;8643;48.824;11.422;2023-03-24T05:35:27;7.00;;;4.97;;
17052;SDS011;8643;48.824;11.422;2023-03-24T05:37:57;6.72;;;5.10;;
17052;SDS011;8643;48.824;11.422;2023-03-24T05:40:26;9.25;;;5.40;;
17052;SDS011;8643;48.824;11.422;2023-03-24T05:43:09;8.00;;;5.77;;
17052;SDS011;8643;48.824;11.422;2023-03-24T05:45:44;7.07;;;5.03;;
17052;SDS011;8643;48.824;11.422;2023-03-24T05:48:24;10.10;;;5.78;;
17052;SDS011;8643;48.824;11.422;2023-03-24T05:51:09;7.78;;;5.22;;
17052;SDS011;8643;48.824;11.422;2023-03-24T05:53:40;7.93;;;5.32;;
17052;SDS011;8643;48.824;11.422;2023-03-24T05:56:17;9.52;;;5.80;;
17052;SDS011;8643;48.824;11.422;2023-03-24T05:59:21;7.43;;;5.65;;
17052;SDS011;8643;48.824;11.422;2023-03-24T06:02:09;11.25;;;6.03;;
17052;SDS011;8643;48.824;11.422;2023-03-24T06:04:57;9.38;;;5.55;;
17052;SDS011;8643;48.824;11.422;2023-03-24T06:07:27;9.27;;;5.85;;
17052;SDS011;8643;48.824;11.422;2023-03-24T06:09:58;10.48;;;6.75;;
17052;SDS011;8643;48.824;11.422;2023-03-24T06:12:37;10.82;;;6.45;;
17052;SDS011;8643;48.824;11.422;2023-03-24T06:15:07;10.10;;;6.45;;
17052;SDS011;8643;48.824;11.422;2023-03-24T06:17:37;10.67;;;6.60;;
17052;SDS011;8643;48.824;11.422;2023-03-24T06:20:18;9.40;;;6.37;;
17052;SDS011;8643;48.824;11.422;2023-03-24T06:22:59;9.43;;;6.73;;
17052;SDS011;8643;48.824;11.422;2023-03-24T06:25:49;12.17;;;7.23;;
17052;SDS011;8643;48.824;11.422;2023-03-24T06:28:23;11.17;;;6.97;;
17052;SDS011;8643;48.824;11.422;2023-03-24T06:30:58;8.27;;;6.07;;
17052;SDS011;8643;48.824;11.422;2023-03-24T06:33:31;8.33;;;6.00;;
17052;SDS011;8643;48.824;11.422;2023-03-24T06:36:01;9.00;;;5.67;;
17052;SDS011;8643;48.824;11.422;2023-03-24T06:38:31;7.40;;;5.60;;
17052;SDS011;8643;48.824;11.422;2023-03-24T06:41:03;10.63;;;6.70;;
17052;SDS011;8643;48.824;11.422;2023-03-24T06:43:34;9.33;;;6.23;;
17052;SDS011;8643;48.824;11.422;2023-03-24T06:46:03;8.75;;;6.43;;
17052;SDS011;8643;48.824;11.422;2023-03-24T06:48:36;10.47;;;6.73;;
17052;SDS011;8643;48.824;11.422;2023-03-24T06:51:06;10.52;;;6.18;;
17052;SDS011;8643;48.824;11.422;2023-03-24T06:53:37;9.93;;;6.57;;
17052;SDS011;8643;48.824;11.422;2023-03-24T06:56:08;8.30;;;6.10;;
17052;SDS011;8643;48.824;11.422;2023-03-24T06:58:45;13.00;;;6.13;;
17052;SDS011;8643;48.824;11.422;2023-03-24T07:01:23;11.32;;;6.43;;
17052;SDS011;8643;48.824;11.422;2023-03-24T07:03:55;9.37;;;6.47;;
17052;SDS011;8643;48.824;11.422;2023-03-24T07:06:35;10.30;;;7.05;;
17052;SDS011;8643;48.824;11.422;2023-03-24T07:09:24;10.10;;;6.30;;
17052;SDS011;8643;48.824;11.422;2023-03-24T07:11:54;9.32;;;6.55;;
17052;SDS011;8643;48.824;11.422;2023-03-24T07:14:23;9.50;;;6.45;;
17052;SDS011;8643;48.824;11.422;2023-03-24T07:16:53;8.27;;;6.40;;
17052;SDS011;8643;48.824;11.422;2023-03-24T07:19:49;10.70;;;6.68;;
17052;SDS011;8643;48.824;11.422;2023-03-24T07:22:40;9.23;;;7.00;;
17052;SDS011;8643;48.824;11.422;2023-03-24T07:25:24;9.77;;;6.70;;
17052;SDS011;8643;48.824;11.422;2023-03-24T07:28:10;13.90;;;7.77;;
17052;SDS011;8643;48.824;11.422;2023-03-24T07:30:39;10.90;;;7.25;;
17052;SDS011;8643;48.824;11.422;2023-03-24T07:33:08;12.98;;;7.43;;
17052;SDS011;8643;48.824;11.422;2023-03-24T07:35:39;10.93;;;7.07;;
17052;SDS011;8643;48.824;11.422;2023-03-24T07:38:09;9.82;;;6.85;;
17052;SDS011;8643;48.824;11.422;2023-03-24T07:40:38;11.27;;;7.43;;
17052;SDS011;8643;48.824;11.422;2023-03-24T07:43:07;11.10;;;7.22;;
17052;SDS011;8643;48.824;11.422;2023-03-24T07:45:56;10.93;;;7.25;;
17052;SDS011;8643;48.824;11.422;2023-03-24T07:48:27;12.38;;;7.38;;
17052;SDS011;8643;48.824;11.422;2023-03-24T07:50:56;13.13;;;7.32;;
17052;SDS011;8643;48.824;11.422;2023-03-24T07:53:44;15.18;;;8.20;;
17052;SDS011;8643;48.824;11.422;2023-03-24T07:56:21;11.55;;;7.50;;
17052;SDS011;8643;48.824;11.422;2023-03-24T07:58:53;12.52;;;7.50;;
17052;SDS011;8643;48.824;11.422;2023-03-24T08:01:59;12.93;;;7.45;;
17052;SDS011;8643;48.824;11.422;2023-03-24T08:04:50;12.63;;;7.78;;
17052;SDS011;8643;48.824;11.422;2023-03-24T08:07:42;10.80;;;7.60;;
17052;SDS011;8643;48.824;11.422;2023-03-24T08:10:15;10.77;;;6.80;;
17052;SDS011;8643;48.824;11.422;2023-03-24T08:12:45;9.75;;;7.10;;
17052;SDS011;8643;48.824;11.422;2023-03-24T08:15:14;10.07;;;7.07;;
17052;SDS011;8643;48.824;11.422;2023-03-24T08:17:44;12.32;;;7.50;;
17052;SDS011;8643;48.824;11.422;2023-03-24T08:20:15;23.02;;;9.82;;
17052;SDS011;8643;48.824;11.422;2023-03-24T08:22:47;11.73;;;7.68;;
17052;SDS011;8643;48.824;11.422;2023-03-24T08:25:20;10.15;;;7.13;;
17052;SDS011;8643;48.824;11.422;2023-03-24T08:27:51;10.90;;;7.10;;
17052;SDS011;8643;48.824;11.422;2023-03-24T08:30:20;10.93;;;7.05;;
17052;SDS011;8643;48.824;11.422;2023-03-24T08:32:55;15.30;;;9.73;;
17052;SDS011;8643;48.824;11.422;2023-03-24T08:35:27;11.50;;;7.82;;
17052;SDS011;8643;48.824;11.422;2023-03-24T08:37:59;11.45;;;7.60;;
17052;SDS011;8643;48.824;11.422;2023-03-24T08:40:32;13.25;;;7.97;;
17052;SDS011;8643;48.824;11.422;2023-03-24T08:43:03;11.05;;;7.47;;
17052;SDS011;8643;48.824;11.422;2023-03-24T08:45:35;13.85;;;7.82;;
17052;SDS011;8643;48.824;11.422;2023-03-24T08:48:06;13.20;;;8.00;;
17052;SDS011;8643;48.824;11.422;2023-03-24T08:50:36;11.60;;;8.00;;
17052;SDS011;8643;48.824;11.422;2023-03-24T08:53:08;12.27;;;7.55;;
17052;SDS011;8643;48.824;11.422;2023-03-24T08:55:37;11.52;;;7.80;;
17052;SDS011;8643;48.824;11.422;2023-03-24T08:58:11;11.48;;;7.68;;
17052;SDS011;8643;48.824;11.422;2023-03-24T09:00:42;9.40;;;7.20;;
17052;SDS011;8643;48.824;11.422;2023-03-24T09:03:16;11.30;;;6.63;;
17052;SDS011;8643;48.824;11.422;2023-03-24T09:05:47;10.90;;;6.63;;
17052;SDS011;8643;48.824;11.422;2023-03-24T09:08:17;10.75;;;6.32;;
17052;SDS011;8643;48.824;11.422;2023-03-24T09:10:46;15.18;;;8.32;;
17052;SDS011;8643;48.824;11.422;2023-03-24T09:13:17;10.43;;;6.90;;
17052;SDS011;8643;48.824;11.422;2023-03-24T09:15:48;9.13;;;6.28;;
17052;SDS011;8643;48.824;11.422;2023-03-24T09:18:20;10.27;;;6.85;;
17052;SDS011;8643;48.824;11.422;2023-03-24T09:20:49;10.98;;;7.15;;
17052;SDS011;8643;48.824;11.422;2023-03-24T09:23:18;10.15;;;7.07;;
17052;SDS011;8643;48.824;11.422;2023-03-24T09:25:48;8.57;;;6.75;;
17052;SDS011;8643;48.824;11.422;2023-03-24T09:28:19;9.27;;;6.63;;
17052;SDS011;8643;48.824;11.422;2023-03-24T09:30:48;11.27;;;7.90;;
17052;SDS011;8643;48.824;11.422;2023-03-24T09:33:17;11.95;;;7.40;;
17052;SDS011;8643;48.824;11.422;2023-03-24T09:35:52;12.65;;;7.70;;
17052;SDS011;8643;48.824;11.422;2023-03-24T09:38:25;11.35;;;7.50;;
17052;SDS011;8643;48.824;11.422;2023-03-24T09:40:55;10.63;;;7.30;;
17052;SDS011;8643;48.824;11.422;2023-03-24T09:43:30;9.65;;;6.93;;
17052;SDS011;8643;48.824;11.422;2023-03-24T09:46:05;11.85;;;7.85;;
17052;SDS011;8643;48.824;11.422;2023-03-24T09:48:48;14.40;;;8.30;;
17052;SDS011;8643;48.824;11.422;2023-03-24T09:51:21;12.60;;;7.68;;
17052;SDS011;8643;48.824;11.422;2023-03-24T09:53:54;9.65;;;7.10;;
17052;SDS011;8643;48.824;11.422;2023-03-24T09:56:34;10.05;;;7.43;;
17052;SDS011;8643;48.824;11.422;2023-03-24T09:59:05;13.75;;;8.50;;
17052;SDS011;8643;48.824;11.422;2023-03-24T10:01:41;12.80;;;8.57;;
17052;SDS011;8643;48.824;11.422;2023-03-24T10:04:13;11.93;;;7.65;;
17052;SDS011;8643;48.824;11.422;2023-03-24T10:06:44;10.63;;;7.10;;
17052;SDS011;8643;48.824;11.422;2023-03-24T10:09:22;10.77;;;7.32;;
17052;SDS011;8643;48.824;11.422;2023-03-24T10:12:01;10.32;;;7.50;;
17052;SDS011;8643;48.824;11.422;2023-03-24T10:14:50;10.95;;;7.57;;
17052;SDS011;8643;48.824;11.422;2023-03-24T10:17:37;10.75;;;7.10;;
17052;SDS011;8643;48.824;11.422;2023-03-24T10:20:25;11.45;;;7.20;;
17052;SDS011;8643;48.824;11.422;2023-03-24T10:23:04;11.32;;;7.18;;
17052;SDS011;8643;48.824;11.422;2023-03-24T10:25:45;11.93;;;7.75;;
17052;SDS011;8643;48.824;11.422;2023-03-24T10:28:22;10.75;;;6.85;;
17052;SDS011;8643;48.824;11.422;2023-03-24T10:30:59;10.20;;;7.22;;
17052;SDS011;8643;48.824;11.422;2023-03-24T10:33:36;13.32;;;7.63;;
17052;SDS011;8643;48.824;11.422;2023-03-24T10:36:11;8.77;;;6.93;;
17052;SDS011;8643;48.824;11.422;2023-03-24T10:38:43;12.52;;;6.95;;
17052;SDS011;8643;48.824;11.422;2023-03-24T10:41:14;9.68;;;7.55;;
17052;SDS011;8643;48.824;11.422;2023-03-24T10:43:48;11.07;;;7.10;;
17052;SDS011;8643;48.824;11.422;2023-03-24T10:46:19;11.32;;;6.97;;
17052;SDS011;8643;48.824;11.422;2023-03-24T10:48:52;10.70;;;7.43;;
17052;SDS011;8643;48.824;11.422;2023-03-24T10:51:38;9.70;;;6.80;;
17052;SDS011;8643;48.824;11.422;2023-03-24T10:54:17;9.50;;;6.43;;
17052;SDS011;8643;48.824;11.422;2023-03-24T10:56:48;11.07;;;6.32;;
17052;SDS011;8643;48.824;11.422;2023-03-24T10:59:23;7.93;;;6.65;;
17052;SDS011;8643;48.824;11.422;2023-03-24T11:01:58;9.35;;;6.53;;
17052;SDS011;8643;48.824;11.422;2023-03-24T11:04:32;6.13;;;4.30;;
17052;SDS011;8643;48.824;11.422;2023-03-24T11:07:03;7.40;;;5.18;;
17052;SDS011;8643;48.824;11.422;2023-03-24T11:09:41;4.85;;;4.00;;
17052;SDS011;8643;48.824;11.422;2023-03-24T11:12:21;5.15;;;4.20;;
17052;SDS011;8643;48.824;11.422;2023-03-24T11:14:53;7.68;;;4.10;;
17052;SDS011;8643;48.824;11.422;2023-03-24T11:17:51;5.40;;;4.07;;
17052;SDS011;8643;48.824;11.422;2023-03-24T11:20:24;4.35;;;3.63;;
17052;SDS011;8643;48.824;11.422;2023-03-24T11:23:01;5.07;;;3.78;;
17052;SDS011;8643;48.824;11.422;2023-03-24T11:25:33;4.95;;;2.80;;
17052;SDS011;8643;48.824;11.422;2023-03-24T11:28:05;4.43;;;2.50;;
17052;SDS011;8643;48.824;11.422;2023-03-24T11:30:44;2.55;;;2.28;;
17052;SDS011;8643;48.824;11.422;2023-03-24T11:33:17;4.32;;;2.38;;
17052;SDS011;8643;48.824;11.422;2023-03-24T11:36:02;3.22;;;2.50;;
17052;SDS011;8643;48.824;11.422;2023-03-24T11:39:02;6.65;;;2.78;;
17052;SDS011;8643;48.824;11.422;2023-03-24T11:41:39;4.10;;;2.63;;
17052;SDS011;8643;48.824;11.422;2023-03-24T11:44:16;3.92;;;2.35;;
17052;SDS011;8643;48.824;11.422;2023-03-24T11:46:49;2.90;;;2.40;;
17052;SDS011;8643;48.824;11.422;2023-03-24T11:49:24;4.35;;;2.42;;
17052;SDS011;8643;48.824;11.422;2023-03-24T11:51:57;4.15;;;2.67;;
17052;SDS011;8643;48.824;11.422;2023-03-24T11:54:28;4.82;;;2.80;;
17052;SDS011;8643;48.824;11.422;2023-03-24T11:57:03;3.72;;;2.67;;
17052;SDS011;8643;48.824;11.422;2023-03-24T11:59:40;3.10;;;2.58;;
17052;SDS011;8643;48.824;11.422;2023-03-24T12:02:19;2.80;;;2.08;;
17052;SDS011;8643;48.824;11.422;2023-03-24T12:05:14;3.72;;;2.17;;
17052;SDS011;8643;48.824;11.422;2023-03-24T12:07:57;3.53;;;2.47;;
17052;SDS011;8643;48.824;11.422;2023-03-24T12:10:54;4.35;;;2.30;;
17052;SDS011;8643;48.824;11.422;2023-03-24T12:13:37;4.78;;;2.80;;
17052;SDS011;8643;48.824;11.422;2023-03-24T12:16:14;4.18;;;2.55;;
17052;SDS011;8643;48.824;11.422;2023-03-24T12:19:16;3.28;;;2.10;;
17052;SDS011;8643;48.824;11.422;2023-03-24T12:22:35;3.45;;;1.98;;
17052;SDS011;8643;48.824;11.422;2023-03-24T12:25:28;3.15;;;2.10;;
17052;SDS011;8643;48.824;11.422;2023-03-24T12:28:15;2.85;;;2.20;;
17052;SDS011;8643;48.824;11.422;2023-03-24T12:30:55;3.25;;;2.30;;
17052;SDS011;8643;48.824;11.422;2023-03-24T12:33:43;3.83;;;2.45;;
17052;SDS011;8643;48.824;11.422;2023-03-24T12:36:26;3.28;;;2.30;;
17052;SDS011;8643;48.824;11.422;2023-03-24T12:39:10;3.65;;;2.50;;
17052;SDS011;8643;48.824;11.422;2023-03-24T12:44:40;2.65;;;2.20;;
17052;SDS011;8643;48.824;11.422;2023-03-24T12:47:29;2.95;;;2.30;;
17052;SDS011;8643;48.824;11.422;2023-03-24T12:50:46;3.08;;;1.80;;
17052;SDS011;8643;48.824;11.422;2023-03-24T12:53:41;4.72;;;2.05;;
17052;SDS011;8643;48.824;11.422;2023-03-24T12:56:23;3.97;;;2.10;;
17052;SDS011;8643;48.824;11.422;2023-03-24T12:59:00;2.33;;;1.83;;
17052;SDS011;8643;48.824;11.422;2023-03-24T13:01:38;3.05;;;1.70;;
17052;SDS011;8643;48.824;11.422;2023-03-24T13:04:12;2.15;;;1.90;;
17052;SDS011;8643;48.824;11.422;2023-03-24T13:06:48;3.17;;;1.92;;
17052;SDS011;8643;48.824;11.422;2023-03-24T13:09:26;3.45;;;1.60;;
17052;SDS011;8643;48.824;11.422;2023-03-24T13:12:09;2.67;;;1.60;;
17052;SDS011;8643;48.824;11.422;2023-03-24T13:14:48;1.90;;;1.40;;
17052;SDS011;8643;48.824;11.422;2023-03-24T13:17:28;3.05;;;1.85;;
17052;SDS011;8643;48.824;11.422;2023-03-24T13:20:04;3.97;;;2.08;;
17052;SDS011;8643;48.824;11.422;2023-03-24T13:22:39;1.75;;;1.10;;
17052;SDS011;8643;48.824;11.422;2023-03-24T13:25:11;2.95;;;1.30;;
17052;SDS011;8643;48.824;11.422;2023-03-24T13:27:54;3.38;;;1.40;;
17052;SDS011;8643;48.824;11.422;2023-03-24T13:30:31;2.15;;;1.40;;
17052;SDS011;8643;48.824;11.422;2023-03-24T13:33:05;3.15;;;2.25;;
17052;SDS011;8643;48.824;11.422;2023-03-24T13:35:46;2.20;;;1.48;;
17052;SDS011;8643;48.824;11.422;2023-03-24T13:38:40;1.95;;;1.52;;
17052;SDS011;8643;48.824;11.422;2023-03-24T13:41:16;3.95;;;1.60;;
17052;SDS011;8643;48.824;11.422;2023-03-24T13:43:56;3.85;;;1.55;;
17052;SDS011;8643;48.824;11.422;2023-03-24T13:46:29;2.58;;;1.80;;
17052;SDS011;8643;48.824;11.422;2023-03-24T13:48:59;2.33;;;1.90;;
17052;SDS011;8643;48.824;11.422;2023-03-24T13:51:31;1.40;;;1.17;;
17052;SDS011;8643;48.824;11.422;2023-03-24T13:54:04;3.13;;;1.60;;
17052;SDS011;8643;48.824;11.422;2023-03-24T13:56:44;2.95;;;1.85;;
17052;SDS011;8643;48.824;11.422;2023-03-24T13:59:25;1.33;;;1.15;;
17052;SDS011;8643;48.824;11.422;2023-03-24T14:02:09;2.13;;;1.13;;
17052;SDS011;8643;48.824;11.422;2023-03-24T14:05:02;3.03;;;1.23;;
17052;SDS011;8643;48.824;11.422;2023-03-24T14:07:42;1.92;;;1.00;;
17052;SDS011;8643;48.824;11.422;2023-03-24T14:10:35;1.73;;;1.05;;
17052;SDS011;8643;48.824;11.422;2023-03-24T14:13:18;1.20;;;0.98;;
17052;SDS011;8643;48.824;11.422;2023-03-24T14:15:50;3.20;;;1.20;;
17052;SDS011;8643;48.824;11.422;2023-03-24T14:21:10;1.85;;;1.10;;
17052;SDS011;8643;48.824;11.422;2023-03-24T14:23:40;1.25;;;1.02;;
17052;SDS011;8643;48.824;11.422;2023-03-24T14:26:11;4.95;;;1.48;;
17052;SDS011;8643;48.824;11.422;2023-03-24T14:28:55;1.70;;;1.33;;
17052;SDS011;8643;48.824;11.422;2023-03-24T14:31:26;3.45;;;1.40;;
17052;SDS011;8643;48.824;11.422;2023-03-24T14:34:03;1.77;;;1.08;;
17052;SDS011;8643;48.824;11.422;2023-03-24T14:36:41;2.78;;;1.20;;
17052;SDS011;8643;48.824;11.422;2023-03-24T14:39:22;1.65;;;0.73;;
17052;SDS011;8643;48.824;11.422;2023-03-24T14:42:02;1.73;;;0.90;;
17052;SDS011;8643;48.824;11.422;2023-03-24T14:45:39;1.52;;;1.05;;
17052;SDS011;8643;48.824;11.422;2023-03-24T14:48:24;3.08;;;0.90;;
17052;SDS011;8643;48.824;11.422;2023-03-24T14:51:12;1.17;;;0.73;;
17052;SDS011;8643;48.824;11.422;2023-03-24T14:54:05;3.33;;;1.00;;
17052;SDS011;8643;48.824;11.422;2023-03-24T14:56:42;1.15;;;0.88;;
17052;SDS011;8643;48.824;11.422;2023-03-24T14:59:21;4.43;;;1.00;;
17052;SDS011;8643;48.824;11.422;2023-03-24T15:02:04;2.72;;;0.95;;
17052;SDS011;8643;48.824;11.422;2023-03-24T15:08:02;1.35;;;0.80;;
17052;SDS011;8643;48.824;11.422;2023-03-24T15:10:42;0.80;;;0.70;;
17052;SDS011;8643;48.824;11.422;2023-03-24T15:13:23;1.40;;;1.00;;
17052;SDS011;8643;48.824;11.422;2023-03-24T15:15:59;2.10;;;0.90;;
17052;SDS011;8643;48.824;11.422;2023-03-24T15:18:33;1.35;;;0.95;;
17052;SDS011;8643;48.824;11.422;2023-03-24T15:21:13;3.03;;;1.02;;
17052;SDS011;8643;48.824;11.422;2023-03-24T15:23:48;1.90;;;1.10;;
17052;SDS011;8643;48.824;11.422;2023-03-24T15:26:19;2.03;;;1.05;;
17052;SDS011;8643;48.824;11.422;2023-03-24T15:28:58;1.63;;;1.10;;
17052;SDS011;8643;48.824;11.422;2023-03-24T15:31:29;2.97;;;1.20;;
17052;SDS011;8643;48.824;11.422;2023-03-24T15:34:03;1.67;;;1.10;;
17052;SDS011;8643;48.824;11.422;2023-03-24T15:36:38;1.77;;;1.17;;
17052;SDS011;8643;48.824;11.422;2023-03-24T15:39:18;1.88;;;1.25;;
17052;SDS011;8643;48.824;11.422;2023-03-24T15:41:53;3.03;;;1.50;;
17052;SDS011;8643;48.824;11.422;2023-03-24T15:44:23;2.08;;;1.60;;
17052;SDS011;8643;48.824;11.422;2023-03-24T15:46:56;1.92;;;1.50;;
17052;SDS011;8643;48.824;11.422;2023-03-24T15:49:29;5.30;;;2.58;;
17052;SDS011;8643;48.824;11.422;2023-03-24T15:52:00;1.90;;;1.50;;
17052;SDS011;8643;48.824;11.422;2023-03-24T15:54:50;1.92;;;1.45;;
17052;SDS011;8643;48.824;11.422;2023-03-24T15:57:24;3.45;;;1.27;;
17052;SDS011;8643;48.824;11.422;2023-03-24T16:00:04;2.20;;;1.35;;